Creek Data

    Home     View Charts     View Raw Data     Messages

ID Distance Battery Voltage Battery Current Internal Temp Internal Humidity External Temp Solar Input rssi snr Time Stamp Record
33772 15.0 3.98 6 75 35 67 5.1 -74 7 03/01/2025 01:45 PM 15472
33771 14.9 4.13 6 72 36 66 5.1 -72 8 03/01/2025 01:30 PM 15471
33770 14.9 4.11 6 68 39 63 5.1 -75 7 03/01/2025 01:15 PM 15470
33769 14.9 3.97 6 70 37 62 5.1 -73 7 03/01/2025 01:00 PM 15469
33768 15.0 3.97 0 73 36 65 5.1 -73 7 03/01/2025 12:45 PM 15468
33767 15.0 3.97 6 72 36 65 5.1 -73 8 03/01/2025 12:30 PM 15467
33766 14.9 3.97 6 71 35 65 5.1 -74 8 03/01/2025 12:15 PM 15466
33765 15.0 3.97 6 70 36 65 5.1 -73 8 03/01/2025 12:00 PM 15465
33764 15.0 3.97 5 69 36 63 5.1 -74 8 03/01/2025 11:45 AM 15464
33763 15.0 3.97 0 68 36 64 5.1 -75 7 03/01/2025 11:30 AM 15463
33762 15.0 3.97 6 68 35 64 5.1 -73 7 03/01/2025 11:15 AM 15462
33761 15.0 3.97 0 66 35 63 5.1 -74 7 03/01/2025 11:00 AM 15461
33760 15.0 4.03 6 65 35 63 5.1 -74 8 03/01/2025 10:45 AM 15460
33759 15.0 3.97 7 64 34 63 5.1 -76 8 03/01/2025 10:30 AM 15459
33758 15.0 3.97 7 62 35 63 5.1 -74 8 03/01/2025 10:15 AM 15458
33757 15.0 3.97 7 59 35 60 5.1 -76 8 03/01/2025 10:00 AM 15457
33756 15.0 3.97 0 57 35 58 5.1 -76 8 03/01/2025 09:45 AM 15456
33755 15.0 3.97 0 55 35 57 5.1 -74 8 03/01/2025 09:30 AM 15455
33754 15.0 3.97 7 54 35 55 5.1 -76 8 03/01/2025 09:15 AM 15454
33753 15.0 3.97 7 52 36 58 5.1 -77 8 03/01/2025 09:00 AM 15453
33752 14.9 3.97 7 50 36 56 5.1 -78 8 03/01/2025 08:45 AM 15452
33751 14.9 3.98 5 48 36 51 5.1 -77 7 03/01/2025 08:30 AM 15451
33750 14.8 4.08 59 47 36 51 4.5 -76 8 03/01/2025 08:15 AM 15450
33749 14.8 4.09 69 46 37 51 4.5 -79 7 03/01/2025 08:00 AM 15449
33748 15.0 3.94 -7 45 37 47 4.5 -79 8 03/01/2025 07:45 AM 15448